.everest 1+marian — YP3044 — position and weather

sailwx.info

Track history (hours):
 
Tides and Currents Weather Stations Pressure Air Temp Water Temp Dewpoint Dewpoint Depression Visibility Wind Speed Wind Dir Waves Ship Positions

.everest 1+marian

Last reported at 2017-Oct-22 06:00 UTC. Time now 2017-Oct-22 06:29 UTC.
Position N 44°16' E 028°09'.

Length 67 m; draft 2.3 m.

Type: Ship. MMSI: 264163044.

Date/timePositionNaut miles runAvg speedWind from/ knotsBaromVisibWave heightAir tempDewpointWater temp
2017-Oct-22 06:00N 44°16' E 028°09'2 4.3
2017-Oct-22 05:30N 44°16' E 028°07'2 4.3
2017-Oct-22 05:00N 44°17' E 028°04'  
2017-Oct-13 11:14N 44°17' E 028°05'1 3.5
2017-Oct-13 10:58N 44°16' E 028°06'2 5.2
2017-Oct-13 10:30N 44°16' E 028°09'3 5.2
2017-Oct-13 10:00N 44°16' E 028°12'3 5.2
2017-Oct-13 09:30N 44°15' E 028°16'3 5.3
2017-Oct-13 09:00N 44°15' E 028°20'2 4.9
2017-Oct-13 08:30N 44°14' E 028°22'3 5.0
2017-Oct-13 07:59N 44°11' E 028°24'7 4.7
2017-Oct-13 06:25N 44°06' E 028°31'2 5.3
2017-Oct-13 06:00N 44°06' E 028°34'2 4.4
2017-Oct-13 05:30N 44°06' E 028°37'0 0.0
2017-Oct-13 05:00N 44°06' E 028°37'1 1.6
2017-Oct-13 04:30N 44°06' E 028°38'1 2.6
2017-Oct-13 04:00N 44°07' E 028°39'0 0.0
2017-Oct-13 03:30N 44°07' E 028°39'0 0.0
2017-Oct-13 03:00N 44°07' E 028°39'0 0.0
2017-Oct-13 02:30N 44°07' E 028°39'0 0.0
2017-Oct-13 02:00N 44°07' E 028°39'0 0.0
2017-Oct-13 01:30N 44°07' E 028°39'0 0.0
2017-Oct-13 01:00N 44°07' E 028°39'0 0.0
2017-Oct-13 00:30N 44°07' E 028°39'0 0.0
2017-Oct-13 00:00N 44°07' E 028°39'0 0.0
2017-Oct-12 23:30N 44°07' E 028°39'0 0.0
2017-Oct-12 23:00N 44°07' E 028°39'0 0.0
2017-Oct-12 22:30N 44°07' E 028°39'0 0.0
2017-Oct-12 22:00N 44°07' E 028°39'0 0.0
2017-Oct-12 21:30N 44°07' E 028°39'0 0.0
2017-Oct-12 21:00N 44°07' E 028°39'0 0.0
2017-Oct-12 20:30N 44°07' E 028°39'0 0.0
2017-Oct-12 20:00N 44°07' E 028°39'0 0.0
2017-Oct-12 19:30N 44°07' E 028°39'0 0.0
2017-Oct-12 19:00N 44°07' E 028°39'0 0.0
2017-Oct-12 18:30N 44°07' E 028°39'0 0.0
2017-Oct-12 18:00N 44°07' E 028°39'0 0.0
2017-Oct-12 17:30N 44°07' E 028°39'0 0.0
2017-Oct-12 17:00N 44°07' E 028°39'0 0.0
2017-Oct-12 16:30N 44°07' E 028°39'0 0.0
2017-Oct-12 16:00N 44°07' E 028°39'0 0.0
2017-Oct-12 15:30N 44°07' E 028°39'0 0.0
2017-Oct-12 15:00N 44°07' E 028°39'0 0.0
2017-Oct-12 14:30N 44°07' E 028°39'0 0.0
2017-Oct-12 14:00N 44°07' E 028°39'0 0.0
2017-Oct-12 13:30N 44°07' E 028°39'0 0.6
2017-Oct-12 13:00N 44°07' E 028°39'0 0.0
2017-Oct-12 12:30N 44°07' E 028°39'0 0.0
2017-Oct-12 12:00N 44°07' E 028°39'0 0.0
2017-Oct-12 11:30N 44°07' E 028°39'0 0.0
2017-Oct-12 11:00N 44°07' E 028°39'0 0.0
2017-Oct-12 10:30N 44°07' E 028°39'0 0.0
2017-Oct-12 10:00N 44°07' E 028°39'0 0.0
2017-Oct-12 09:30N 44°07' E 028°39'0 0.0
2017-Oct-12 09:00N 44°07' E 028°39'0 0.0
2017-Oct-12 08:30N 44°07' E 028°39'0 0.0
2017-Oct-12 08:00N 44°07' E 028°39'0 0.0
2017-Oct-12 07:30N 44°07' E 028°39'0 0.0
2017-Oct-12 07:00N 44°07' E 028°39'0 0.0
2017-Oct-12 06:30N 44°07' E 028°39'0 0.0
2017-Oct-12 06:00N 44°07' E 028°39'  
Track history (hours):
 
Tides and Currents Weather Stations Pressure Air Temp Water Temp Dewpoint Dewpoint Depression Visibility Wind Speed Wind Dir Waves Ship Positions

.everest 1+marian

Last reported at 2017-Oct-22 06:00 UTC. Time now 2017-Oct-22 06:29 UTC.
Position N 44°16' E 028°09'.

Length 67 m; draft 2.3 m.

Type: Ship. MMSI: 264163044.

Date/timePositionNaut miles runAvg speedWind from/ knotsBaromVisibWave heightAir tempDewpointWater temp
2017-Oct-22 06:00N 44°16' E 028°09'2 4.3
2017-Oct-22 05:30N 44°16' E 028°07'2 4.3
2017-Oct-22 05:00N 44°17' E 028°04'  
2017-Oct-13 11:14N 44°17' E 028°05'1 3.5
2017-Oct-13 10:58N 44°16' E 028°06'2 5.2
2017-Oct-13 10:30N 44°16' E 028°09'3 5.2
2017-Oct-13 10:00N 44°16' E 028°12'3 5.2
2017-Oct-13 09:30N 44°15' E 028°16'3 5.3
2017-Oct-13 09:00N 44°15' E 028°20'2 4.9
2017-Oct-13 08:30N 44°14' E 028°22'3 5.0
2017-Oct-13 07:59N 44°11' E 028°24'7 4.7
2017-Oct-13 06:25N 44°06' E 028°31'2 5.3
2017-Oct-13 06:00N 44°06' E 028°34'2 4.4
2017-Oct-13 05:30N 44°06' E 028°37'0 0.0
2017-Oct-13 05:00N 44°06' E 028°37'1 1.6
2017-Oct-13 04:30N 44°06' E 028°38'1 2.6
2017-Oct-13 04:00N 44°07' E 028°39'0 0.0
2017-Oct-13 03:30N 44°07' E 028°39'0 0.0
2017-Oct-13 03:00N 44°07' E 028°39'0 0.0
2017-Oct-13 02:30N 44°07' E 028°39'0 0.0
2017-Oct-13 02:00N 44°07' E 028°39'0 0.0
2017-Oct-13 01:30N 44°07' E 028°39'0 0.0
2017-Oct-13 01:00N 44°07' E 028°39'0 0.0
2017-Oct-13 00:30N 44°07' E 028°39'0 0.0
2017-Oct-13 00:00N 44°07' E 028°39'0 0.0
2017-Oct-12 23:30N 44°07' E 028°39'0 0.0
2017-Oct-12 23:00N 44°07' E 028°39'0 0.0
2017-Oct-12 22:30N 44°07' E 028°39'0 0.0
2017-Oct-12 22:00N 44°07' E 028°39'0 0.0
2017-Oct-12 21:30N 44°07' E 028°39'0 0.0
2017-Oct-12 21:00N 44°07' E 028°39'0 0.0
2017-Oct-12 20:30N 44°07' E 028°39'0 0.0
2017-Oct-12 20:00N 44°07' E 028°39'0 0.0
2017-Oct-12 19:30N 44°07' E 028°39'0 0.0
2017-Oct-12 19:00N 44°07' E 028°39'0 0.0
2017-Oct-12 18:30N 44°07' E 028°39'0 0.0
2017-Oct-12 18:00N 44°07' E 028°39'0 0.0
2017-Oct-12 17:30N 44°07' E 028°39'0 0.0
2017-Oct-12 17:00N 44°07' E 028°39'0 0.0
2017-Oct-12 16:30N 44°07' E 028°39'0 0.0
2017-Oct-12 16:00N 44°07' E 028°39'0 0.0
2017-Oct-12 15:30N 44°07' E 028°39'0 0.0
2017-Oct-12 15:00N 44°07' E 028°39'0 0.0
2017-Oct-12 14:30N 44°07' E 028°39'0 0.0
2017-Oct-12 14:00N 44°07' E 028°39'0 0.0
2017-Oct-12 13:30N 44°07' E 028°39'0 0.6
2017-Oct-12 13:00N 44°07' E 028°39'0 0.0
2017-Oct-12 12:30N 44°07' E 028°39'0 0.0
2017-Oct-12 12:00N 44°07' E 028°39'0 0.0
2017-Oct-12 11:30N 44°07' E 028°39'0 0.0
2017-Oct-12 11:00N 44°07' E 028°39'0 0.0
2017-Oct-12 10:30N 44°07' E 028°39'0 0.0
2017-Oct-12 10:00N 44°07' E 028°39'0 0.0
2017-Oct-12 09:30N 44°07' E 028°39'0 0.0
2017-Oct-12 09:00N 44°07' E 028°39'0 0.0
2017-Oct-12 08:30N 44°07' E 028°39'0 0.0
2017-Oct-12 08:00N 44°07' E 028°39'0 0.0
2017-Oct-12 07:30N 44°07' E 028°39'0 0.0
2017-Oct-12 07:00N 44°07' E 028°39'0 0.0
2017-Oct-12 06:30N 44°07' E 028°39'0 0.0
2017-Oct-12 06:00N 44°07' E 028°39'  

Dump ship's entire track history